createdAt,value
2023-03-22T00:00:37.051Z,8.84
2023-03-22T00:01:39.337Z,8.89
2023-03-22T00:02:41.322Z,8.87
2023-03-22T00:03:43.255Z,8.93
2023-03-22T00:04:45.234Z,8.87
2023-03-22T00:05:47.933Z,8.86
2023-03-22T00:06:49.941Z,8.87
2023-03-22T00:07:52.073Z,8.85
2023-03-22T00:08:54.394Z,8.89
2023-03-22T00:09:56.539Z,8.90
2023-03-22T00:10:59.075Z,8.90
2023-03-22T00:12:00.968Z,8.83
2023-03-22T00:13:05.655Z,8.72
2023-03-22T00:14:07.594Z,8.80
2023-03-22T00:15:10.596Z,8.78
2023-03-22T00:16:14.784Z,8.82
2023-03-22T00:17:17.030Z,8.79
2023-03-22T00:18:18.965Z,8.79
2023-03-22T00:19:21.022Z,8.75
2023-03-22T00:20:23.238Z,8.77
2023-03-22T00:21:25.144Z,8.84
2023-03-22T00:22:27.153Z,8.80
2023-03-22T00:23:29.120Z,8.82
2023-03-22T00:24:31.405Z,8.45
2023-03-22T00:25:33.873Z,8.31
2023-03-22T00:26:36.072Z,8.43
2023-03-22T00:27:38.060Z,8.38
2023-03-22T00:28:40.731Z,8.36
2023-03-22T00:29:43.636Z,8.44
2023-03-22T00:31:05.943Z,8.44
2023-03-22T00:32:08.245Z,8.52
2023-03-22T00:33:10.558Z,8.53
2023-03-22T00:34:12.547Z,8.48
2023-03-22T00:35:15.158Z,8.60
2023-03-22T00:36:17.204Z,8.59
2023-03-22T00:37:19.082Z,8.49
2023-03-22T00:38:27.174Z,8.49
2023-03-22T00:39:25.002Z,8.42
2023-03-22T00:40:27.440Z,8.37
2023-03-22T00:41:29.507Z,8.31
2023-03-22T00:42:31.386Z,8.40
2023-03-22T00:43:35.501Z,8.40
2023-03-22T00:44:38.229Z,8.43
2023-03-22T00:45:40.687Z,8.39
2023-03-22T00:46:43.088Z,8.47
2023-03-22T00:47:44.988Z,8.37
2023-03-22T00:48:47.897Z,8.43
2023-03-22T00:49:49.880Z,8.36
2023-03-22T00:50:52.163Z,8.39
2023-03-22T00:51:54.153Z,8.35
2023-03-22T00:52:56.032Z,8.39
2023-03-22T00:53:57.901Z,8.39
2023-03-22T00:55:01.141Z,8.34
2023-03-22T00:56:05.030Z,8.34
2023-03-22T00:57:06.934Z,8.37
2023-03-22T00:58:08.839Z,8.44
2023-03-22T00:59:12.227Z,8.41
2023-03-22T01:00:15.717Z,8.36
2023-03-22T01:01:17.768Z,8.34
2023-03-22T01:02:19.814Z,8.34
2023-03-22T01:03:22.144Z,8.37
2023-03-22T01:04:24.347Z,8.36
2023-03-22T01:05:26.315Z,8.41
2023-03-22T01:06:28.400Z,8.29
2023-03-22T01:07:30.273Z,8.28
2023-03-22T01:08:32.143Z,8.30
2023-03-22T01:09:34.009Z,8.19
2023-03-22T01:10:38.097Z,8.29
2023-03-22T01:11:42.072Z,8.28
2023-03-22T01:12:44.592Z,8.23
2023-03-22T01:13:46.590Z,8.26
2023-03-22T01:14:48.580Z,8.31
2023-03-22T01:15:51.136Z,8.32
2023-03-22T01:16:54.151Z,8.39
2023-03-22T01:17:56.314Z,8.33
2023-03-22T01:18:58.518Z,8.38
2023-03-22T01:20:00.540Z,8.37
2023-03-22T01:21:03.184Z,8.33
2023-03-22T01:22:06.122Z,8.30
2023-03-22T01:23:08.018Z,8.31
2023-03-22T01:24:09.916Z,8.29
2023-03-22T01:25:12.149Z,8.29
2023-03-22T01:26:14.303Z,8.28
2023-03-22T01:27:16.316Z,8.26
2023-03-22T01:28:18.570Z,8.27
2023-03-22T01:29:20.560Z,8.27
2023-03-22T01:30:25.259Z,8.28
2023-03-22T01:31:27.673Z,8.27
2023-03-22T01:32:29.573Z,8.26
2023-03-22T01:33:31.470Z,8.21
2023-03-22T01:34:33.681Z,8.21
2023-03-22T01:35:36.398Z,8.26
2023-03-22T01:36:40.382Z,8.26
2023-03-22T01:37:43.050Z,8.26
2023-03-22T01:38:44.955Z,8.28
2023-03-22T01:39:48.060Z,8.24
2023-03-22T01:40:50.258Z,8.20
2023-03-22T01:41:52.417Z,8.21
2023-03-22T01:42:55.251Z,8.13
2023-03-22T01:44:08.402Z,8.14
2023-03-22T01:45:17.103Z,8.12
2023-03-22T01:46:19.273Z,8.07
2023-03-22T01:47:21.556Z,8.08
2023-03-22T01:48:32.986Z,8.03
2023-03-22T01:49:35.123Z,7.89
2023-03-22T01:50:40.669Z,7.96
2023-03-22T01:51:45.979Z,7.87
2023-03-22T01:52:51.003Z,7.99
2023-03-22T01:55:08.334Z,7.93
2023-03-22T01:56:12.258Z,7.97
2023-03-22T01:57:14.883Z,7.80
2023-03-22T01:58:18.675Z,7.87
2023-03-22T01:59:21.667Z,7.84
2023-03-22T02:00:25.377Z,7.85
2023-03-22T02:01:27.478Z,7.87
2023-03-22T02:02:29.860Z,7.81
2023-03-22T02:03:41.454Z,7.73
2023-03-22T02:04:43.294Z,7.66
2023-03-22T02:05:47.166Z,7.75
2023-03-22T02:06:52.011Z,7.77
2023-03-22T02:07:54.292Z,7.56
2023-03-22T02:08:56.409Z,7.66
2023-03-22T02:09:59.025Z,7.49
2023-03-22T02:11:02.737Z,7.63
2023-03-22T02:12:20.466Z,7.70
2023-03-22T02:13:34.963Z,7.76
2023-03-22T02:14:40.868Z,7.59
2023-03-22T02:16:02.221Z,7.70
2023-03-22T02:17:24.928Z,7.59
2023-03-22T02:20:36.053Z,7.54
2023-03-22T02:21:54.024Z,7.47
2023-03-22T02:23:14.563Z,7.47
2023-03-22T02:24:29.451Z,7.47
2023-03-22T02:26:10.582Z,7.11
2023-03-22T02:27:19.312Z,7.11
2023-03-22T02:28:30.647Z,7.20
2023-03-22T02:29:45.437Z,7.23
2023-03-22T02:31:17.115Z,7.01
2023-03-22T02:32:41.343Z,7.19
2023-03-22T02:33:53.058Z,7.21
2023-03-22T02:35:15.134Z,7.24
2023-03-22T02:36:23.955Z,7.20
2023-03-22T02:37:38.921Z,7.07
2023-03-22T02:39:18.000Z,7.16
2023-03-22T02:40:44.940Z,7.14
2023-03-22T02:42:05.992Z,7.11
2023-03-22T02:43:36.192Z,7.18
2023-03-22T02:45:00.234Z,7.22
2023-03-22T02:46:15.412Z,7.15
2023-03-22T02:47:30.355Z,7.10
2023-03-22T02:48:39.207Z,7.18
2023-03-22T02:50:57.941Z,7.24
2023-03-22T02:53:34.172Z,7.27
2023-03-22T02:54:45.987Z,7.25
2023-03-22T02:55:57.606Z,7.25
2023-03-22T02:57:09.311Z,7.31
2023-03-22T02:59:39.277Z,7.29
2023-03-22T03:00:44.291Z,7.27
2023-03-22T03:01:53.019Z,7.24
2023-03-22T03:02:58.787Z,7.16
2023-03-22T03:04:04.477Z,7.25
2023-03-22T03:05:09.978Z,7.30
2023-03-22T03:06:15.273Z,7.27
2023-03-22T03:07:23.757Z,7.27
2023-03-22T03:08:27.853Z,7.23
2023-03-22T03:09:32.592Z,7.24
2023-03-22T03:10:35.046Z,7.33
2023-03-22T03:11:36.957Z,7.20
2023-03-22T03:12:38.947Z,7.09
2023-03-22T03:13:40.827Z,7.17
2023-03-22T03:14:42.695Z,7.20
2023-03-22T03:15:48.695Z,7.25
2023-03-22T03:16:57.298Z,7.26
2023-03-22T03:18:06.025Z,7.24
2023-03-22T03:19:21.585Z,7.33
2023-03-22T03:20:33.879Z,7.31
2023-03-22T03:21:45.453Z,7.31
2023-03-22T03:23:06.197Z,7.31
2023-03-22T03:24:20.987Z,7.31
2023-03-22T03:25:48.361Z,7.32
2023-03-22T03:27:00.025Z,7.32
2023-03-22T03:28:24.345Z,7.41
2023-03-22T03:29:49.947Z,7.37
2023-03-22T03:31:01.408Z,7.34
2023-03-22T03:32:26.775Z,7.31
2023-03-22T03:33:32.007Z,7.27
2023-03-22T03:34:46.633Z,7.39
2023-03-22T03:35:52.477Z,7.39
2023-03-22T03:38:14.788Z,7.43
2023-03-22T03:39:19.843Z,7.43
2023-03-22T03:40:31.394Z,7.38
2023-03-22T03:41:33.804Z,7.38
2023-03-22T03:42:39.595Z,7.43
2023-03-22T03:43:43.296Z,7.20
2023-03-22T03:44:45.198Z,7.36
2023-03-22T03:45:48.137Z,7.42
2023-03-22T03:46:52.226Z,7.48
2023-03-22T03:47:57.941Z,7.41
2023-03-22T03:49:03.542Z,7.42
2023-03-22T03:50:07.980Z,7.43
2023-03-22T03:51:09.900Z,7.46
2023-03-22T03:52:11.811Z,7.52
2023-03-22T03:53:13.702Z,7.57
2023-03-22T03:54:17.129Z,7.54
2023-03-22T03:55:20.946Z,7.53
2023-03-22T03:56:23.194Z,7.58
2023-03-22T03:57:25.279Z,7.66
2023-03-22T03:58:27.248Z,7.37
2023-03-22T03:59:29.156Z,7.37
2023-03-22T04:00:31.419Z,7.45
2023-03-22T04:01:33.551Z,7.43
2023-03-22T04:02:36.397Z,7.40
2023-03-22T04:03:38.466Z,7.48
2023-03-22T04:04:41.280Z,7.52
2023-03-22T04:05:45.400Z,7.40
2023-03-22T04:06:47.534Z,7.48
2023-03-22T04:07:49.524Z,7.42
2023-03-22T04:08:51.433Z,7.41
2023-03-22T04:09:53.323Z,7.41
2023-03-22T04:10:55.306Z,7.32
2023-03-22T04:11:57.716Z,7.45
2023-03-22T04:12:59.939Z,7.48
2023-03-22T04:14:02.076Z,7.50
2023-03-22T04:15:05.363Z,7.39
2023-03-22T04:16:09.879Z,7.45
2023-03-22T04:17:11.782Z,7.25
2023-03-22T04:18:13.682Z,7.20
2023-03-22T04:19:16.010Z,7.27
2023-03-22T04:20:18.945Z,7.07
2023-03-22T04:21:21.111Z,7.13
2023-03-22T04:22:24.933Z,7.10
2023-03-22T04:23:26.875Z,6.90
2023-03-22T04:24:28.852Z,6.96
2023-03-22T04:25:31.626Z,7.06
2023-03-22T04:26:33.713Z,7.09
2023-03-22T04:27:41.350Z,7.22
2023-03-22T04:28:43.286Z,7.31
2023-03-22T04:29:45.391Z,7.33
2023-03-22T04:30:47.722Z,7.31
2023-03-22T04:31:49.926Z,7.33
2023-03-22T04:32:52.092Z,7.38
2023-03-22T04:33:53.974Z,7.40
2023-03-22T04:34:58.280Z,7.44
2023-03-22T04:36:02.049Z,7.39
2023-03-22T04:37:04.436Z,7.45
2023-03-22T04:38:06.367Z,7.43
2023-03-22T04:39:11.613Z,7.44
2023-03-22T04:40:14.832Z,7.50
2023-03-22T04:41:18.066Z,7.48
2023-03-22T04:42:21.348Z,7.16
2023-03-22T04:43:24.530Z,7.33
2023-03-22T04:44:26.556Z,7.36
2023-03-22T04:45:29.387Z,7.42
2023-03-22T04:46:33.967Z,7.27
2023-03-22T04:47:35.947Z,7.29
2023-03-22T04:48:39.976Z,7.39
2023-03-22T04:49:41.980Z,7.45
2023-03-22T04:50:44.204Z,7.50
2023-03-22T04:51:46.602Z,7.49
2023-03-22T04:52:49.197Z,7.45
2023-03-22T04:53:51.927Z,7.27
2023-03-22T04:54:53.820Z,7.09
2023-03-22T04:55:56.125Z,7.22
2023-03-22T04:56:58.413Z,7.00
2023-03-22T04:58:01.892Z,6.93
2023-03-22T04:59:03.914Z,7.03
2023-03-22T05:00:07.442Z,7.13
2023-03-22T05:01:11.854Z,6.95
2023-03-22T05:02:13.854Z,7.16
2023-03-22T05:03:15.747Z,7.22
2023-03-22T05:04:18.558Z,7.13
2023-03-22T05:05:20.448Z,7.22
2023-03-22T05:06:22.833Z,7.13
2023-03-22T05:07:25.690Z,7.05
2023-03-22T05:08:29.705Z,7.23
2023-03-22T05:09:31.744Z,7.24
2023-03-22T05:10:33.962Z,7.17
2023-03-22T05:11:36.250Z,7.04
2023-03-22T05:12:39.315Z,7.17
2023-03-22T05:13:42.149Z,7.23
2023-03-22T05:14:44.262Z,7.33
2023-03-22T05:15:48.554Z,7.51
2023-03-22T05:16:50.737Z,7.55
2023-03-22T05:17:52.720Z,7.44
2023-03-22T05:18:55.161Z,7.44
2023-03-22T05:19:57.135Z,7.57
2023-03-22T05:21:00.657Z,7.59
2023-03-22T05:22:02.649Z,7.34
2023-03-22T05:23:04.561Z,7.29
2023-03-22T05:24:07.568Z,7.40
2023-03-22T05:25:09.970Z,7.43
2023-03-22T05:26:12.672Z,7.39
2023-03-22T05:27:15.675Z,7.41
2023-03-22T05:28:20.701Z,7.52
2023-03-22T05:29:23.303Z,7.52
2023-03-22T05:30:25.285Z,7.61
2023-03-22T05:31:28.718Z,7.58
2023-03-22T05:32:30.808Z,7.51
2023-03-22T05:33:33.366Z,7.63
2023-03-22T05:34:36.178Z,7.54
2023-03-22T05:35:40.512Z,7.61
2023-03-22T05:36:42.795Z,7.51
2023-03-22T05:37:44.775Z,7.60
2023-03-22T05:38:47.129Z,7.59
2023-03-22T05:39:49.028Z,7.46
2023-03-22T05:40:51.335Z,7.60
2023-03-22T05:41:53.567Z,7.56
2023-03-22T05:42:55.889Z,7.70
2023-03-22T05:43:58.732Z,7.64
2023-03-22T05:45:00.614Z,7.76
2023-03-22T05:46:10.679Z,7.79
2023-03-22T05:47:12.695Z,7.96
2023-03-22T05:48:14.875Z,7.89
2023-03-22T05:49:16.816Z,8.00
2023-03-22T05:50:22.099Z,8.03
2023-03-22T05:51:24.174Z,8.14
2023-03-22T05:52:26.346Z,8.14
2023-03-22T05:53:29.312Z,8.10
2023-03-22T05:54:31.332Z,7.94
2023-03-22T05:55:33.357Z,8.10
2023-03-22T05:56:35.555Z,7.95
2023-03-22T05:57:38.878Z,8.22
2023-03-22T05:58:41.939Z,8.28
2023-03-22T05:59:44.549Z,8.38
2023-03-22T06:00:46.625Z,8.48
2023-03-22T06:01:48.647Z,8.60
2023-03-22T06:02:50.996Z,8.65
2023-03-22T06:03:53.043Z,8.74
2023-03-22T06:04:56.141Z,8.67
2023-03-22T06:05:58.037Z,8.70
2023-03-22T06:07:00.028Z,8.73
2023-03-22T06:08:02.356Z,8.86
2023-03-22T06:09:16.398Z,8.95
2023-03-22T06:10:11.846Z,8.98
2023-03-22T06:11:13.768Z,9.00
2023-03-22T06:12:16.228Z,8.98
2023-03-22T06:13:19.735Z,8.80
2023-03-22T06:14:21.721Z,8.97
2023-03-22T06:15:23.755Z,8.93
2023-03-22T06:16:27.148Z,8.72
2023-03-22T06:17:30.044Z,8.80
2023-03-22T06:18:32.316Z,9.04
2023-03-22T06:19:34.425Z,9.17
2023-03-22T06:20:38.994Z,9.18
2023-03-22T06:21:41.323Z,9.02
2023-03-22T06:22:43.405Z,8.92
2023-03-22T06:23:45.448Z,9.08
2023-03-22T06:24:48.487Z,8.99
2023-03-22T06:25:50.418Z,8.89
2023-03-22T06:26:52.511Z,8.78
2023-03-22T06:27:54.527Z,8.95
2023-03-22T06:28:56.568Z,8.83
2023-03-22T06:29:59.668Z,9.04
2023-03-22T06:31:07.260Z,9.28
2023-03-22T06:32:09.955Z,9.39
2023-03-22T06:33:12.825Z,9.15
2023-03-22T06:34:14.789Z,9.51
2023-03-22T06:35:17.013Z,9.75
2023-03-22T06:36:19.192Z,10.00
2023-03-22T06:37:22.163Z,10.36
2023-03-22T06:38:24.217Z,10.55
2023-03-22T06:39:26.822Z,10.77
2023-03-22T06:40:29.397Z,10.85
2023-03-22T06:41:31.310Z,10.61
2023-03-22T06:42:33.341Z,10.46
2023-03-22T06:43:35.352Z,9.98
2023-03-22T06:44:37.544Z,10.10
2023-03-22T06:45:39.601Z,10.36
2023-03-22T06:46:42.281Z,9.88
2023-03-22T06:47:44.482Z,9.83
2023-03-22T06:48:46.558Z,9.54
2023-03-22T06:49:49.309Z,9.81
2023-03-22T06:50:51.377Z,9.81
2023-03-22T06:51:53.743Z,10.25
2023-03-22T06:52:55.735Z,10.07
2023-03-22T06:53:58.027Z,10.31
2023-03-22T06:54:59.961Z,10.48
2023-03-22T06:56:04.414Z,9.96
2023-03-22T06:57:06.681Z,10.21
2023-03-22T06:58:09.172Z,10.54
2023-03-22T06:59:12.292Z,10.80
2023-03-22T07:00:15.425Z,11.03
2023-03-22T07:01:18.326Z,11.38
2023-03-22T07:02:20.304Z,11.07
2023-03-22T07:03:22.421Z,11.15
2023-03-22T07:04:25.887Z,10.94
2023-03-22T07:05:28.487Z,11.24
2023-03-22T07:06:30.469Z,10.99
2023-03-22T07:07:32.360Z,10.94
2023-03-22T07:08:35.340Z,10.88
2023-03-22T07:09:39.025Z,10.78
2023-03-22T07:10:42.283Z,10.93
2023-03-22T07:11:44.377Z,11.18
2023-03-22T07:12:46.245Z,11.57
2023-03-22T07:13:48.290Z,11.85
2023-03-22T07:14:50.903Z,12.15
2023-03-22T07:15:57.385Z,12.19
2023-03-22T07:16:59.570Z,11.75
2023-03-22T07:18:02.915Z,11.40
2023-03-22T07:19:04.911Z,11.73
2023-03-22T07:20:08.662Z,11.84
2023-03-22T07:21:10.673Z,12.13
2023-03-22T07:22:12.675Z,12.52
2023-03-22T07:23:14.632Z,12.76
2023-03-22T07:24:16.919Z,12.67
2023-03-22T07:25:19.612Z,12.84
2023-03-22T07:26:21.794Z,11.75
2023-03-22T07:27:25.552Z,11.99
2023-03-22T07:28:28.005Z,12.35
2023-03-22T07:29:30.041Z,11.90
2023-03-22T07:30:32.822Z,11.68
2023-03-22T07:31:35.827Z,12.01
2023-03-22T07:32:40.677Z,12.14
2023-03-22T07:33:43.354Z,12.32
2023-03-22T07:34:45.541Z,12.45
2023-03-22T07:35:47.566Z,12.60
2023-03-22T07:36:50.108Z,12.66
2023-03-22T07:37:52.601Z,12.73
2023-03-22T07:38:55.304Z,12.72
2023-03-22T07:39:57.223Z,12.91
2023-03-22T07:40:59.331Z,12.99
2023-03-22T07:42:01.431Z,13.00
2023-03-22T07:43:03.449Z,12.30
2023-03-22T07:44:17.275Z,12.33
2023-03-22T07:45:10.436Z,12.86
2023-03-22T07:46:12.656Z,13.01
2023-03-22T07:47:14.822Z,13.17
2023-03-22T07:48:22.788Z,13.22
2023-03-22T07:49:25.129Z,13.31
2023-03-22T07:50:27.326Z,12.59
2023-03-22T07:51:29.220Z,12.39
2023-03-22T07:52:31.124Z,12.02
2023-03-22T07:53:33.308Z,12.72
2023-03-22T07:54:35.195Z,13.00
2023-03-22T07:55:37.983Z,13.29
2023-03-22T07:56:40.599Z,12.59
2023-03-22T07:57:43.172Z,12.74
2023-03-22T07:58:45.104Z,13.33
2023-03-22T07:59:47.282Z,13.58
2023-03-22T08:00:49.561Z,13.82
2023-03-22T08:01:52.843Z,13.95
2023-03-22T08:02:54.988Z,13.96
2023-03-22T08:03:56.990Z,14.02
2023-03-22T08:04:59.004Z,14.11
2023-03-22T08:06:02.790Z,14.05
2023-03-22T08:07:04.830Z,13.95
2023-03-22T08:08:07.627Z,13.91
2023-03-22T08:09:10.499Z,14.03
2023-03-22T08:10:14.679Z,13.90
2023-03-22T08:11:17.016Z,13.46
2023-03-22T08:12:19.378Z,13.61
2023-03-22T08:13:21.399Z,13.09
2023-03-22T08:14:35.496Z,13.46
2023-03-22T08:15:27.471Z,13.25
2023-03-22T08:16:30.107Z,13.39
2023-03-22T08:17:32.492Z,13.60
2023-03-22T08:18:34.403Z,13.29
2023-03-22T08:19:36.315Z,13.25
2023-03-22T08:20:38.788Z,13.20
2023-03-22T08:21:41.329Z,13.30
2023-03-22T08:22:44.515Z,13.08
2023-03-22T08:23:48.772Z,13.30
2023-03-22T08:24:51.288Z,13.25
2023-03-22T08:25:53.507Z,12.91
2023-03-22T08:26:55.878Z,13.05
2023-03-22T08:27:58.540Z,13.25
2023-03-22T08:29:00.663Z,13.24
2023-03-22T08:30:04.044Z,13.21
2023-03-22T08:31:13.836Z,13.14
2023-03-22T08:32:16.992Z,12.49
2023-03-22T08:33:19.016Z,12.24
2023-03-22T08:34:21.419Z,12.46
2023-03-22T08:35:23.663Z,12.79
2023-03-22T08:36:25.898Z,12.90
2023-03-22T08:37:27.821Z,12.89
2023-03-22T08:38:29.796Z,12.96
2023-03-22T08:39:33.947Z,13.03
2023-03-22T08:40:36.236Z,13.05
2023-03-22T08:41:38.890Z,12.78
2023-03-22T08:42:40.854Z,12.78
2023-03-22T08:43:43.079Z,12.93
2023-03-22T08:44:47.162Z,12.94
2023-03-22T08:45:49.212Z,12.91
2023-03-22T08:46:53.456Z,12.92
2023-03-22T08:47:56.931Z,13.03
2023-03-22T08:48:59.019Z,13.14
2023-03-22T08:50:01.445Z,12.90
2023-03-22T08:51:05.452Z,13.16
2023-03-22T08:52:07.458Z,13.30
2023-03-22T08:53:09.692Z,13.43
2023-03-22T08:54:12.175Z,13.33
2023-03-22T08:55:14.190Z,12.61
2023-03-22T08:56:16.305Z,12.74
2023-03-22T08:57:19.042Z,13.21
2023-03-22T08:58:21.217Z,13.29
2023-03-22T08:59:23.139Z,13.00
2023-03-22T09:00:25.713Z,13.34
2023-03-22T09:01:27.912Z,13.43
2023-03-22T09:02:30.066Z,13.75
2023-03-22T09:03:32.021Z,13.08
2023-03-22T09:04:34.107Z,12.87
2023-03-22T09:05:39.259Z,13.18
2023-03-22T09:06:42.067Z,12.82
2023-03-22T09:07:44.196Z,13.02
2023-03-22T09:08:46.436Z,12.91
2023-03-22T09:09:48.507Z,13.04
2023-03-22T09:10:50.619Z,13.07
2023-03-22T09:11:52.499Z,12.85
2023-03-22T09:12:55.554Z,13.07
2023-03-22T09:13:57.761Z,13.15
2023-03-22T09:14:59.905Z,13.02
2023-03-22T09:16:02.275Z,13.27
2023-03-22T09:17:04.686Z,13.40
2023-03-22T09:18:06.558Z,13.51
2023-03-22T09:19:08.950Z,12.99
2023-03-22T09:20:13.236Z,13.06
2023-03-22T09:21:15.528Z,13.11
2023-03-22T09:22:17.649Z,13.39
2023-03-22T09:23:20.659Z,13.10
2023-03-22T09:24:23.006Z,13.41
2023-03-22T09:25:25.667Z,13.19
2023-03-22T09:26:28.088Z,13.06
2023-03-22T09:27:30.284Z,13.03
2023-03-22T09:28:33.522Z,12.88
2023-03-22T09:29:35.704Z,12.95
2023-03-22T09:30:38.769Z,12.73
2023-03-22T09:31:41.003Z,13.05
2023-03-22T09:32:43.159Z,13.07
2023-03-22T09:33:45.238Z,12.84
2023-03-22T09:34:47.715Z,12.66
2023-03-22T09:35:49.739Z,12.56
2023-03-22T09:36:51.907Z,12.81
2023-03-22T09:37:56.034Z,12.97
2023-03-22T09:38:58.603Z,13.02
2023-03-22T09:40:00.493Z,12.92
2023-03-22T09:41:10.055Z,13.23
2023-03-22T09:42:27.575Z,13.44
2023-03-22T09:43:36.192Z,13.64
2023-03-22T09:44:44.028Z,13.37
2023-03-22T09:45:49.443Z,13.33
2023-03-22T09:46:54.005Z,13.58
2023-03-22T09:47:59.011Z,13.35
2023-03-22T09:49:04.791Z,13.46
2023-03-22T09:50:14.087Z,13.35
2023-03-22T09:51:22.549Z,13.69
2023-03-22T09:52:25.795Z,13.56
2023-03-22T09:53:31.477Z,13.68
2023-03-22T09:54:37.182Z,13.79
2023-03-22T09:55:55.190Z,13.88
2023-03-22T09:57:01.080Z,13.86
2023-03-22T09:58:41.386Z,13.99
2023-03-22T10:00:01.554Z,13.71
2023-03-22T10:01:16.040Z,13.58
2023-03-22T10:02:31.743Z,13.34
2023-03-22T10:04:02.240Z,13.34
2023-03-22T10:05:29.529Z,13.33
2023-03-22T10:06:32.411Z,13.30
2023-03-22T10:07:57.741Z,12.99
2023-03-22T10:09:15.812Z,12.89
2023-03-22T10:10:21.379Z,13.02
2023-03-22T10:11:27.945Z,13.26
2023-03-22T10:12:42.431Z,13.44
2023-03-22T10:13:50.797Z,13.45
2023-03-22T10:15:05.369Z,13.11
2023-03-22T10:16:14.054Z,13.42
2023-03-22T10:17:19.083Z,13.61
2023-03-22T10:19:41.192Z,13.84
2023-03-22T10:20:47.070Z,13.79
2023-03-22T10:21:50.802Z,12.87
2023-03-22T10:22:56.139Z,12.85
2023-03-22T10:24:10.805Z,13.10
2023-03-22T10:25:19.328Z,13.34
2023-03-22T10:26:28.208Z,13.40
2023-03-22T10:27:31.222Z,13.07
2023-03-22T10:28:39.838Z,13.27
2023-03-22T10:29:47.206Z,13.49
2023-03-22T10:30:55.430Z,13.52
2023-03-22T10:32:01.252Z,13.23
2023-03-22T10:33:08.100Z,13.35
2023-03-22T10:34:22.838Z,13.53
2023-03-22T10:35:26.293Z,13.38
2023-03-22T10:36:32.652Z,13.65
2023-03-22T10:37:37.398Z,13.74
2023-03-22T10:38:49.453Z,13.77
2023-03-22T10:39:55.067Z,13.78
2023-03-22T10:40:59.888Z,13.64
2023-03-22T10:42:05.232Z,13.67
2023-03-22T10:43:29.982Z,13.87
2023-03-22T10:44:35.711Z,13.91
2023-03-22T10:45:40.492Z,13.79
2023-03-22T10:46:44.858Z,13.89
2023-03-22T10:48:02.369Z,14.00
2023-03-22T10:49:06.236Z,14.09
2023-03-22T10:50:13.570Z,14.05
2023-03-22T10:52:40.495Z,13.50
2023-03-22T10:53:48.662Z,13.69
2023-03-22T10:54:51.166Z,13.98
2023-03-22T10:55:53.537Z,13.90
2023-03-22T10:56:55.822Z,13.79
2023-03-22T10:58:18.254Z,13.81
2023-03-22T10:59:43.819Z,13.57
2023-03-22T11:00:52.214Z,13.91
2023-03-22T11:01:54.527Z,13.84
2023-03-22T11:03:02.345Z,14.00
2023-03-22T11:04:13.787Z,14.08
2023-03-22T11:05:22.652Z,14.07
2023-03-22T11:06:28.054Z,13.82
2023-03-22T11:07:36.697Z,14.07
2023-03-22T11:08:53.660Z,14.04
2023-03-22T11:10:12.859Z,13.75
2023-03-22T11:11:27.809Z,13.84
2023-03-22T11:12:30.036Z,13.94
2023-03-22T11:13:34.972Z,13.91
2023-03-22T11:14:40.748Z,13.70
2023-03-22T11:15:55.498Z,13.73
2023-03-22T11:17:07.260Z,13.84
2023-03-22T11:18:15.476Z,13.94
2023-03-22T11:19:33.274Z,14.05
2023-03-22T11:20:38.866Z,13.69
2023-03-22T11:21:41.883Z,13.42
2023-03-22T11:22:46.193Z,13.64
2023-03-22T11:23:57.775Z,13.52
2023-03-22T11:25:01.992Z,13.42
2023-03-22T11:26:13.712Z,13.46
2023-03-22T11:27:27.681Z,13.45
2023-03-22T11:28:36.268Z,13.26
2023-03-22T11:29:44.922Z,13.34
2023-03-22T11:30:59.364Z,13.25
2023-03-22T11:32:01.619Z,13.09
2023-03-22T11:33:20.503Z,13.41
2023-03-22T11:34:28.206Z,13.54
2023-03-22T11:35:30.902Z,13.65
2023-03-22T11:36:36.922Z,13.77
2023-03-22T11:37:41.220Z,13.75
2023-03-22T11:38:45.587Z,13.78
2023-03-22T11:39:49.045Z,13.89
2023-03-22T11:40:57.752Z,13.87
2023-03-22T11:42:02.036Z,13.82
2023-03-22T11:43:22.689Z,13.79
2023-03-22T11:44:27.421Z,13.94
2023-03-22T11:45:32.936Z,13.90
2023-03-22T11:46:36.864Z,13.87
2023-03-22T11:47:39.175Z,13.95
2023-03-22T11:48:44.649Z,13.96
2023-03-22T11:49:49.945Z,14.03
2023-03-22T11:50:55.845Z,14.09
2023-03-22T11:52:04.073Z,14.08
2023-03-22T11:53:08.732Z,14.05
2023-03-22T11:54:32.527Z,14.09
2023-03-22T11:55:35.916Z,14.16
2023-03-22T11:56:44.802Z,14.07
2023-03-22T11:57:46.722Z,13.86
2023-03-22T11:59:09.502Z,13.62
2023-03-22T12:00:22.170Z,13.41
2023-03-22T12:01:40.032Z,13.27
2023-03-22T12:02:51.923Z,13.50
2023-03-22T12:03:56.719Z,13.45
2023-03-22T12:06:25.939Z,13.19
2023-03-22T12:07:31.055Z,13.17
2023-03-22T12:08:52.090Z,13.34
2023-03-22T12:09:59.036Z,13.37
2023-03-22T12:11:07.777Z,13.80
2023-03-22T12:12:19.659Z,13.89
2023-03-22T12:13:46.482Z,14.06
2023-03-22T12:15:01.414Z,14.16
2023-03-22T12:16:07.318Z,14.28
2023-03-22T12:17:22.197Z,14.17
2023-03-22T12:18:30.931Z,14.16
2023-03-22T12:19:55.006Z,14.03
2023-03-22T12:21:00.902Z,13.89
2023-03-22T12:22:10.147Z,14.00
2023-03-22T12:23:15.451Z,13.57
2023-03-22T12:24:28.455Z,13.39
2023-03-22T12:25:36.948Z,13.23
2023-03-22T12:26:40.433Z,13.45
2023-03-22T12:27:46.188Z,13.70
2023-03-22T12:28:56.013Z,13.81
2023-03-22T12:30:02.378Z,13.89
2023-03-22T12:31:08.196Z,13.92
2023-03-22T12:32:13.919Z,13.78
2023-03-22T12:33:19.688Z,13.62
2023-03-22T12:34:26.462Z,13.88
2023-03-22T12:35:35.507Z,13.91
2023-03-22T12:36:44.494Z,13.75
2023-03-22T12:37:50.328Z,13.76
2023-03-22T12:38:58.167Z,14.01
2023-03-22T12:40:16.040Z,13.82
2023-03-22T12:42:50.758Z,14.11
2023-03-22T12:43:57.677Z,14.34
2023-03-22T12:45:06.618Z,14.41
2023-03-22T12:46:21.999Z,14.52
2023-03-22T12:47:37.092Z,14.55
2023-03-22T12:50:04.347Z,14.37
2023-03-22T12:51:12.059Z,14.43
2023-03-22T12:52:32.021Z,14.33
2023-03-22T12:53:34.258Z,14.17
2023-03-22T12:54:39.189Z,14.26
2023-03-22T12:55:42.887Z,14.10
2023-03-22T12:56:46.054Z,13.64
2023-03-22T12:57:49.062Z,13.80
2023-03-22T13:00:13.703Z,14.07
2023-03-22T13:01:36.030Z,14.05
2023-03-22T13:02:41.537Z,14.06
2023-03-22T13:03:47.070Z,14.17
2023-03-22T13:04:52.281Z,13.97
2023-03-22T13:06:06.399Z,13.89
2023-03-22T13:07:14.612Z,14.15
2023-03-22T13:08:21.868Z,14.18
2023-03-22T13:09:42.209Z,13.90
2023-03-22T13:11:04.001Z,13.76
2023-03-22T13:12:18.818Z,13.84
2023-03-22T13:13:24.692Z,13.89
2023-03-22T13:14:50.500Z,13.60
2023-03-22T13:15:59.185Z,13.59
2023-03-22T13:17:01.303Z,13.79
2023-03-22T13:18:04.936Z,13.66
2023-03-22T13:19:19.850Z,13.80
2023-03-22T13:20:24.123Z,13.84
2023-03-22T13:21:28.124Z,13.92
2023-03-22T13:22:39.575Z,13.87
2023-03-22T13:23:54.319Z,13.79
2023-03-22T13:25:05.671Z,13.84
2023-03-22T13:26:12.388Z,13.96
2023-03-22T13:27:15.481Z,13.97
2023-03-22T13:28:25.783Z,13.97
2023-03-22T13:29:37.306Z,13.89
2023-03-22T13:30:48.505Z,13.90
2023-03-22T13:31:56.996Z,13.88
2023-03-22T13:33:09.175Z,13.68
2023-03-22T13:34:17.871Z,13.89
2023-03-22T13:35:40.615Z,14.08
2023-03-22T13:36:52.991Z,13.96
2023-03-22T13:38:04.171Z,14.17
2023-03-22T13:39:10.129Z,14.08
2023-03-22T13:41:38.664Z,14.08
2023-03-22T13:42:41.465Z,14.11
2023-03-22T13:43:46.674Z,14.02
2023-03-22T13:44:58.196Z,14.19
2023-03-22T13:46:22.444Z,14.01
2023-03-22T13:47:45.941Z,14.17
2023-03-22T13:48:54.830Z,14.23
2023-03-22T13:50:20.413Z,14.19
2023-03-22T13:51:26.222Z,14.24
2023-03-22T13:52:37.905Z,14.05
2023-03-22T13:53:43.653Z,14.14
2023-03-22T13:54:49.537Z,14.21
2023-03-22T13:55:55.732Z,13.92
2023-03-22T13:57:00.073Z,13.79
2023-03-22T13:58:05.727Z,13.94
2023-03-22T13:59:26.731Z,13.99
2023-03-22T14:01:52.570Z,13.74
2023-03-22T14:03:07.354Z,13.68
2023-03-22T14:04:12.589Z,13.64
2023-03-22T14:05:18.166Z,13.51
2023-03-22T14:06:26.285Z,13.68
2023-03-22T14:07:44.284Z,13.53
2023-03-22T14:08:49.989Z,13.65
2023-03-22T14:09:59.082Z,13.72
2023-03-22T14:12:33.376Z,13.69
2023-03-22T14:13:54.331Z,13.78
2023-03-22T14:14:59.644Z,13.79
2023-03-22T14:16:25.178Z,13.79
2023-03-22T14:17:50.625Z,13.60
2023-03-22T14:18:53.670Z,13.65
2023-03-22T14:19:56.597Z,13.68
2023-03-22T14:21:01.882Z,13.66
